Atlantic - Newfoundland: Past 24 Hour Conditions

 

La Scie

09:30 PM NDT 20 October 2014
This table is a summary of hourly weather conditions for the past 24 hours.
Date / Time
(NDT)
Wind(knots) Conditions Visibility(km) Pressure(kPa) Air tempC) Relative humidity(%) Dew pointC)
20 October 2014
21:30 18 gust 38 N/A N/A 99.4 6 81 2
20:30 19 gust 34 N/A N/A 99.3 6 76 2
19:30 19 gust 35 N/A N/A 99.3 6 75 2
18:30 26 gust 36 N/A N/A 99.1 7 77 3
17:30 21 gust 53 N/A N/A 99.0 7 77 3
16:30 21 gust 39 N/A N/A 98.9 9 79 5
15:30 24 gust 44 N/A N/A 98.7 10 81 7
14:30 22 gust 36 N/A N/A 98.6 11 87 9
13:30 22 gust 36 N/A N/A 98.5 14 100 14
12:30 16 gust 26 N/A N/A 98.6 15 100 15
11:30 13 gust 18 N/A N/A 98.9 14 100 14
10:30 13 gust 25 N/A N/A 99.1 14 100 14
9:30 12 gust 21 N/A N/A 99.4 14 100 14
8:30 13 gust 20 N/A N/A 99.5 12 100 12
7:30 11 gust 19 N/A N/A 99.7 12 100 12
6:30 10 gust 17 N/A N/A 99.9 11 100 11
5:30 11 gust 16 N/A N/A 100.1 11 100 11
4:30 6 N/A N/A 100.3 11 100 11
3:30 4 N/A N/A 100.4 11 100 11
2:30 5 N/A N/A 100.5 11 100 11
1:30 5 N/A N/A 100.6 11 100 11
0:30 6 N/A N/A 100.6 9 100 9
19 October 2014
23:30 6 N/A N/A 100.6 9 100 9
22:30 4 N/A N/A 100.6 10 100 10
21:30 2 N/A N/A 100.6 10 100 10
 
Map of Atlantic - Newfoundland marine weather areas Southwestern Grand Banks - 44138 Banquereau - 44139 Tail of the Bank - 44140 Nickerson Bank - 44251 Northeast Burgeo Bank - 44255 Blanc-Sablon Airport Cap Whittle Chevery Natashquan Airport Heath Point Miscou Island Grand Étang Ingonish Beach North Mountain St.Paul Island J.A. Douglas McCurdy Sydney Airport Charlottetown Airport East Point North Cape Argentia Bonavista Burgeo Cape Race Corner Brook Daniel's Harbour Englee Ferolle Point La Scie Port aux Basques Rocky Harbour Sagona Island St. Anthony Airport St. John's Int'l Airport St. Lawrence Stephenville Airport Twillingate Winterland Wreckhouse Cartwright Airport Mary's Harbour Grates Cove Pool's Island Marticot Island Long Pond Îles de la Madeleine Airport
Legend: buoyBuoy land stationLand Station